Terminal Aerodrome Forecast
Issued by NWS Omaha/Valley, NE

Home | Current Version | Previous Version | Graphics & Text | Print | Product List | Glossary On
Versions: 1 2 3 4 5 6 7 8 9 10 11 12 13 14 15 16 17 18
000
FTUS43 KOAX 282320
TAFOFK
TAF
KOFK 282320Z 2900/2924 15010KT P6SM SCT040 BKN250
     FM290300 16007KT P6SM SCT200
     FM291000 17005KT 6SM BR SCT050 BKN200
      TEMPO 2910/2913 4SM BR BKN050
     FM291700 19010KT P6SM SCT040 BKN150=

USA.gov is the U.S. government's official web portal to all federal, state and local government web resources and services.